SBGRSBMG

Guest
Details From SBGR - Sao Paulo - Guarulhos
To SBMG - REGIONAL DE MARINGA SILVIO NAME JUNIOR
Flight Number -
Tags generated
Created
Modified
Stats Distance 306 nm / 567 km
Max Altitude 18,200 ft / 5,547 m
Waypoints 4
Social Downloads 0
Likes 0
Share VATSIM

Download

Looking for another format? Having issues loading an existing format? Contact us
Advertisement - Login to hide

Notes

Basic altitude profile: - Ascent Rate: 2500ft/min - Ascent Speed: 250kts - Cruise Altitude: 35000ft - Cruise Speed: 420kts - Descent Rate: 1500ft/min - Descent Speed: 250kts Options: - Use NATs: yes - Use PACOTS: yes - Use low airways: yes - Use high airways: yes

Route

SBGR SCB A428 KARIU SBMG

ID Type Via Altitude Latitude Longitude Leg Dist Tot Dist Heading (true) Name
O SBGR APT - 0 ft / 0 m -23.43233˚ -46.46968˚ - 0 nm - Sao Paulo - Guarulhos
SCB VOR - 16,900 ft / 5,151 m -23.50700˚ -47.37817˚ 50 nm 50 nm 265° / 265° SOROCABA VOR-DME
KARIU FIX A428 (AWY-LO) 18,200 ft / 5,547 m -23.37900˚ -50.38933˚ 166 nm 216 nm 272° / 273° -
O SBMG APT - 0 ft / 0 m -23.47611˚ -52.01640˚ 89 nm 306 nm 266° / 267° REGIONAL DE MARINGA SILVIO NAME JUNIOR

Altitude Profile

Advertisement - Login to hide

Weather


0- 5 10 15 20 25 30 35+ Temperature / ° C

Clouds and Precipitation
Forecast for 2018-05-23 12:00 UTC. Updated 4 hours ago

Ground ~20,000 ft ~40,000 ft Winds

SBGR

Details ICAO SBGR (GRU)
Name Sao Paulo - Guarulhos
Region Brazil
Timezone America/Sao_Paulo (UTC-3.0)
Stats Elevation 2,459 ft / 750 m (AMSL)
Location -23.432333° -46.469675°
Runways 2
Magnetic Variation 21.466° W

METAR

SBGR 231500Z 08004KT 6000 FEW020 20/14 Q1024

Decode

TAF

TAF SBGR 231002Z 2312/2418 09002KT 8000 NSCTX22/2317Z TN08/2409Z BECMG 2313/2315 11005KT BECMG 2317/2319 15006KT BECMG 2321/2323 15002KT BECMG 2323/2401 09002KT PROB30 2409/2411 2000 BR BKN002 BECMG 2412/2414 09005KT RMK PGM

Decode

Departure Runways

ID Width Length Bearing (true) Bearing (mag) Surface Threshold Offset Overrun Length
09L 148 ft / 45 m 12,676 ft / 3,864 m 73.61° 95.08° Asphalt 495 ft / 151 m 0 ft / 0 m
09R 148 ft / 45 m 9,950 ft / 3,033 m 73.60° 95.07° Asphalt 0 ft / 0 m 197 ft / 60 m
27L 148 ft / 45 m 9,950 ft / 3,033 m 253.59° 275.06° Asphalt 0 ft / 0 m 197 ft / 60 m
27R 148 ft / 45 m 12,676 ft / 3,864 m 253.60° 275.07° Asphalt 197 ft / 60 m 0 ft / 0 m

SBMG

Details ICAO SBMG (MGF)
Name REGIONAL DE MARINGA SILVIO NAME JUNIOR
Region Brazil
Timezone America/Sao_Paulo (UTC-3.0)
Stats Elevation 1,788 ft / 545 m (AMSL)
Location -23.476112° -52.016404°
Runways 1
Magnetic Variation 18.583° W

METAR

SBMG 231500Z 15001KT CAVOK 21/12 Q1021

Decode

TAF

Not found

Destination Runways

ID Width Length Bearing (true) Bearing (mag) Surface Threshold Offset Overrun Length
09 147 ft / 45 m 6,893 ft / 2,101 m 77.96° 96.54° Asphalt 0 ft / 0 m 195 ft / 59 m
27 147 ft / 45 m 6,893 ft / 2,101 m 257.95° 276.53° Asphalt 0 ft / 0 m 195 ft / 59 m

Popular Alternatives